CLW2 weather

Public forecast

Using degrees Celsius for public forecast. Weather courtesy of forecast.io.

Closest aviation weather report (METAR) to Ullswater Airport

Closest report is Muskoka Airport, 16.5 nm (30.6 km) SSE. Retrieved 2020/08/09 02:00 UTC (18 minutes ago):

CYQA 090200Z AUTO 00000KT 9SM BKN160 BKN180 18/17 A3008 RMK SLP186 DENSITY ALT 1200FT

Closest aviation forecast (TAF) to Ullswater Airport

Forecast is more than 6 hours old.

Closest forecast is Muskoka Airport, 16.5 nm (30.6 km) SSE. Retrieved 2020/08/08 20:00 UTC (6 hours ago):

TAF CYQA 081938Z 0820/0902 24008KT P6SM FEW070 BECMG 0900/0902 VRB03KT RMK FCST BASED ON AUTO OBS NXT FCST WILL BE ISSUED AT 091145Z